CASK1: Ninnescah River Ab Cheney Reservoir

Data processed at Wed Jul 01 23:40:56 2015 Central Daylight Time


All information presented herein is the property of the government of the United States of America and may be revised or deleted at any time without prior notice.
Dissemination of this information without the expressed written consent of the Public Affairs Office, Tulsa District U.S. Army Corps of Engineers is strictly prohibited.
These data are gathered electronically and, as presented, have not undergone any form of quality control. These data are not guaranteed to be valid or correct.
Go to home page.
Go to station list.
Go to station map.

Upstream stations:

Downstream station: Previous Day
Next Day
Current Day

Display graphics.
Display DCP transmissions.


    
    SHEF ID:       CASK1     Ninnescah River Ab Cheney Reservoir
    STATION TYPE:  STREAM GAGE
    Regulation Limits:  Stage = -901.00, Flow =    -901
    
                   PRECIP     STAGE  RIV-FLOW  WTR-TEMP   DIS-OXY        PH   CONDUCT  BAT-LOAD
                   INCHES      FEET       CFS     DEG-F      MG/L        PH     US/CM     VOLTS
                     GOES      GOES      GOES      GOES      GOES      GOES      GOES      GOES
       (Cen)
    07/01 01:00      0.00      6.02        33     79.30      5.99      8.20       995     12.81
    07/01 02:00      0.00      6.01        32     77.97      6.04      8.15       996     12.81
    07/01 03:00      0.00      6.01        32     76.77      6.17      8.12      1001     12.81
    07/01 04:00      0.00      6.00        31     75.81      6.26      8.11      1005     12.81
    07/01 05:00      0.00      6.01        32     75.06      6.32      8.11      1007     12.73
    07/01 06:00      0.00      6.00        31     74.17      6.42      8.12      1011     12.73
    07/01 07:00      0.00      6.01        32     73.54      6.63      8.13      1015     12.73
    07/01 08:00      0.00      6.00        31     73.29      7.20      8.18      1019     12.81
    07/01 09:00      0.00      6.00        31     74.12      7.93      8.26      1016     13.21
    07/01 10:00      0.00      6.00        31     76.30      8.40      8.29      1022     13.44
    07/01 11:00      0.00      6.00        31     79.74      8.62      8.32      1020     13.53
    07/01 12:00      0.00      5.99        30     80.42      8.37      8.37      1022     13.44
    07/01 13:00      0.00      5.99        30     81.68      8.63      8.42      1017     13.44
    07/01 14:00      0.00      6.00        31     82.09      8.53      8.46      1014     13.53
    07/01 15:00      0.00      5.99        30     85.12      9.02      8.51      1008     13.44
    07/01 16:00      0.00      5.99        30     86.67      9.03      8.48       992     13.44
    07/01 17:00      0.00      5.98        29     88.83      9.17      8.44       964     13.44
    07/01 18:00      0.00      5.99        30     89.20      9.22      8.37       930     13.37
    07/01 19:00      0.00      5.99        30     89.44      8.84      8.33       901     13.37
    07/01 20:00      0.00      5.98        29     88.05      8.32      8.32       885     13.13
    07/01 21:00      0.00      5.97        28     86.09      7.19      8.28       898     12.97
    07/01 22:00      0.00      5.98        29     84.02      6.40      8.27       916     12.89
    07/01 23:00      0.00      5.98        29     82.29      6.09      8.25       936     12.89
    07/02 00:00      ----      ----      ----      ----      ----      ----      ----      ----